createdAt,value
2018-12-08T00:00:59.242Z,6.15
2018-12-08T00:04:01.257Z,2.45
2018-12-08T00:07:02.248Z,3.42
2018-12-08T00:10:03.247Z,6.80
2018-12-08T00:13:07.563Z,5.25
2018-12-08T00:16:11.887Z,7.75
2018-12-08T00:19:12.359Z,1.82
2018-12-08T00:22:17.455Z,3.95
2018-12-08T00:25:20.233Z,5.78
2018-12-08T00:28:20.970Z,6.78
2018-12-08T00:31:31.688Z,7.87
2018-12-08T00:34:32.425Z,16.55
2018-12-08T00:37:33.164Z,6.28
2018-12-08T00:40:41.575Z,4.70
2018-12-08T00:43:42.571Z,16.73
2018-12-08T00:46:47.660Z,5.03
2018-12-08T00:49:48.394Z,4.90
2018-12-08T00:52:49.134Z,10.58
2018-12-08T00:55:49.865Z,13.08
2018-12-08T00:58:50.601Z,8.73
2018-12-08T01:01:51.340Z,9.45
2018-12-08T01:04:52.846Z,9.55
2018-12-08T01:07:53.579Z,11.60
2018-12-08T01:10:54.316Z,5.25
2018-12-08T01:13:55.823Z,6.45
2018-12-08T01:16:56.554Z,4.95
2018-12-08T01:19:57.804Z,5.53
2018-12-08T01:22:58.538Z,4.60
2018-12-08T01:26:00.043Z,6.25
2018-12-08T01:29:03.607Z,7.47
2018-12-08T01:32:04.077Z,6.55
2018-12-08T01:35:08.716Z,20.65
2018-12-08T01:38:09.391Z,14.18
2018-12-08T01:41:10.635Z,11.55
2018-12-08T01:44:12.139Z,8.85
2018-12-08T01:47:15.946Z,8.08
2018-12-08T01:50:11.562Z,11.53
2018-12-08T01:53:12.553Z,9.18
2018-12-08T01:56:13.546Z,8.80
2018-12-08T01:59:15.560Z,1.32
2018-12-08T02:02:16.553Z,5.15
2018-12-08T02:05:20.874Z,6.42
2018-12-08T02:08:22.122Z,5.47
2018-12-08T02:11:25.117Z,14.30
2018-12-08T02:14:24.361Z,7.75
2018-12-08T02:17:25.611Z,11.20
2018-12-08T02:20:26.624Z,11.38
2018-12-08T02:23:27.592Z,8.85
2018-12-08T02:26:29.865Z,13.98
2018-12-08T02:29:31.626Z,9.13
2018-12-08T02:32:33.138Z,1.95
2018-12-08T02:35:34.385Z,10.35
2018-12-08T02:38:35.128Z,11.00
2018-12-08T02:41:37.129Z,18.85
2018-12-08T02:44:38.122Z,15.08
2018-12-08T02:47:38.858Z,10.93
2018-12-08T02:50:39.593Z,13.35
2018-12-08T02:53:40.332Z,13.58
2018-12-08T02:56:41.320Z,6.78
2018-12-08T02:59:45.903Z,15.50
2018-12-08T03:02:48.425Z,10.48
2018-12-08T03:05:49.424Z,10.58
2018-12-08T03:08:50.923Z,10.20
2018-12-08T03:11:51.931Z,6.22
2018-12-08T03:14:52.907Z,13.43
2018-12-08T03:17:49.560Z,6.37
2018-12-08T03:20:50.026Z,11.88
2018-12-08T03:23:48.204Z,14.73
2018-12-08T03:26:48.681Z,5.40
2018-12-08T03:29:49.162Z,3.85
2018-12-08T03:32:50.679Z,8.70
2018-12-08T03:35:51.402Z,17.62
2018-12-08T03:38:52.905Z,7.42
2018-12-08T03:41:50.312Z,9.75
2018-12-08T03:44:43.115Z,11.97
2018-12-08T03:47:43.856Z,15.90
2018-12-08T03:50:44.586Z,11.10
2018-12-08T03:53:53.006Z,4.87
2018-12-08T03:56:53.481Z,5.85
2018-12-08T03:59:54.987Z,11.30
2018-12-08T04:02:55.726Z,10.80
2018-12-08T04:05:56.719Z,5.85
2018-12-08T04:08:57.715Z,9.93
2018-12-08T04:11:58.702Z,7.28
2018-12-08T04:14:59.437Z,8.10
2018-12-08T04:18:00.177Z,12.03
2018-12-08T04:21:00.905Z,7.30
2018-12-08T04:24:04.203Z,14.65
2018-12-08T04:27:04.688Z,10.35
2018-12-08T04:30:05.161Z,9.95
2018-12-08T04:33:05.905Z,9.48
2018-12-08T04:36:01.450Z,9.95
2018-12-08T04:39:03.020Z,9.68
2018-12-08T04:42:03.498Z,14.65
2018-12-08T04:45:05.524Z,16.45
2018-12-08T04:48:06.505Z,22.30
2018-12-08T04:51:08.781Z,15.95
2018-12-08T04:54:10.287Z,8.80
2018-12-08T04:57:10.766Z,8.58
2018-12-08T05:00:11.497Z,6.92
2018-12-08T05:03:12.233Z,8.83
2018-12-08T05:06:13.232Z,12.82
2018-12-08T05:09:13.712Z,3.37
2018-12-08T05:12:18.026Z,11.08
2018-12-08T05:15:18.761Z,3.55
2018-12-08T05:18:19.754Z,16.23
2018-12-08T05:21:20.744Z,10.35
2018-12-08T05:24:23.788Z,13.68
2018-12-08T05:27:24.783Z,8.20
2018-12-08T05:30:26.026Z,4.45
2018-12-08T05:33:27.036Z,7.37
2018-12-08T05:36:29.549Z,5.87
2018-12-08T05:39:34.120Z,9.53
2018-12-08T05:42:34.857Z,7.53
2018-12-08T05:45:35.336Z,5.78
2018-12-08T05:48:36.071Z,7.67
2018-12-08T05:51:40.392Z,3.00
2018-12-08T05:54:41.131Z,1.65
2018-12-08T05:57:41.612Z,10.00
2018-12-08T06:00:42.088Z,5.30
2018-12-08T06:03:42.570Z,35.85
2018-12-08T06:06:43.816Z,4.58
2018-12-08T06:09:44.553Z,3.90
2018-12-08T06:12:37.608Z,8.23
2018-12-08T06:15:38.092Z,14.73
2018-12-08T06:18:38.574Z,14.25
2018-12-08T06:21:39.562Z,10.53
2018-12-08T06:24:40.555Z,16.05
2018-12-08T06:27:58.704Z,12.18
2018-12-08T06:30:59.179Z,8.50
2018-12-08T06:33:59.914Z,14.47
2018-12-08T06:37:00.393Z,6.12
2018-12-08T06:40:01.387Z,9.93
2018-12-08T06:43:02.120Z,14.00
2018-12-08T06:46:02.601Z,6.90
2018-12-08T06:49:03.343Z,6.53
2018-12-08T06:52:03.817Z,6.72
2018-12-08T06:55:04.552Z,13.90
2018-12-08T06:58:05.040Z,5.40
2018-12-08T07:01:05.772Z,8.18
2018-12-08T07:04:08.152Z,8.93
2018-12-08T07:07:06.730Z,8.08
2018-12-08T07:10:07.339Z,8.95
2018-12-08T07:13:12.813Z,6.35
2018-12-08T07:16:14.827Z,18.77
2018-12-08T07:19:15.819Z,11.40
2018-12-08T07:22:16.558Z,12.82
2018-12-08T07:25:18.318Z,13.00
2018-12-08T07:28:19.051Z,9.48
2018-12-08T07:31:27.215Z,11.65
2018-12-08T07:34:27.946Z,11.00
2018-12-08T07:37:29.708Z,15.03
2018-12-08T07:40:31.724Z,12.00
2018-12-08T07:43:32.201Z,4.75
2018-12-08T07:46:32.950Z,7.00
2018-12-08T07:49:34.966Z,11.50
2018-12-08T07:52:35.691Z,6.40
2018-12-08T07:55:36.936Z,5.75
2018-12-08T07:58:37.932Z,8.68
2018-12-08T08:01:38.410Z,10.05
2018-12-08T08:04:38.894Z,4.08
2018-12-08T08:07:39.626Z,12.53
2018-12-08T08:10:41.385Z,8.98
2018-12-08T08:13:38.147Z,7.87
2018-12-08T08:16:39.799Z,4.78
2018-12-08T08:19:40.267Z,5.33
2018-12-08T08:22:41.768Z,9.43
2018-12-08T08:25:42.258Z,3.30
2018-12-08T08:28:42.734Z,6.85
2018-12-08T08:31:43.930Z,6.37
2018-12-08T08:34:44.971Z,6.30
2018-12-08T08:37:45.704Z,9.85
2018-12-08T08:40:46.440Z,11.55
2018-12-08T08:43:51.785Z,10.58
2018-12-08T08:46:56.163Z,14.63
2018-12-08T08:49:56.588Z,13.78
2018-12-08T08:52:58.344Z,10.82
2018-12-08T08:55:59.080Z,7.45
2018-12-08T08:59:00.842Z,17.65
2018-12-08T09:02:01.336Z,13.10
2018-12-08T09:05:04.874Z,10.25
2018-12-08T09:08:07.147Z,12.00
2018-12-08T09:11:07.883Z,14.50
2018-12-08T09:14:13.210Z,14.35
2018-12-08T09:17:09.611Z,11.15
2018-12-08T09:20:11.113Z,7.62
2018-12-08T09:23:14.836Z,16.55
2018-12-08T09:26:13.609Z,4.40
2018-12-08T09:29:16.907Z,11.48
2018-12-08T09:32:17.642Z,4.95
2018-12-08T09:35:18.379Z,14.38
2018-12-08T09:38:18.857Z,8.40
2018-12-08T09:41:19.342Z,12.93
2018-12-08T09:44:20.081Z,9.38
2018-12-08T09:47:21.066Z,7.42
2018-12-08T09:50:22.057Z,9.28
2018-12-08T09:53:33.806Z,10.25
2018-12-08T09:56:27.625Z,11.18
2018-12-08T09:59:28.361Z,7.83
2018-12-08T10:02:28.843Z,10.63
2018-12-08T10:05:29.582Z,4.08
2018-12-08T10:08:30.067Z,7.62
2018-12-08T10:11:31.051Z,12.73
2018-12-08T10:14:31.530Z,15.48
2018-12-08T10:17:32.271Z,12.93
2018-12-08T10:20:33.258Z,4.00
2018-12-08T10:23:35.532Z,12.13
2018-12-08T10:26:37.034Z,10.80
2018-12-08T10:29:37.585Z,11.60
2018-12-08T10:32:38.254Z,1.72
2018-12-08T10:35:40.266Z,17.50
2018-12-08T10:38:42.539Z,14.45
2018-12-08T10:41:43.530Z,6.65
2018-12-08T10:44:44.009Z,9.75
2018-12-08T10:47:44.755Z,8.40
2018-12-08T10:50:45.226Z,4.12
2018-12-08T10:53:48.779Z,12.18
2018-12-08T10:56:49.259Z,15.15
2018-12-08T10:59:49.739Z,11.68
2018-12-08T11:02:58.605Z,11.55
2018-12-08T11:05:59.403Z,16.48
2018-12-08T11:09:01.677Z,9.68
2018-12-08T11:12:02.408Z,7.53
2018-12-08T11:15:00.605Z,6.30
2018-12-08T11:17:49.808Z,14.70
2018-12-08T11:20:53.098Z,15.93
2018-12-08T11:23:48.202Z,20.30
2018-12-08T11:26:52.522Z,20.88
2018-12-08T11:29:49.416Z,12.00
2018-12-08T11:32:50.156Z,10.68
2018-12-08T11:35:51.402Z,7.78
2018-12-08T11:38:52.650Z,10.95
2018-12-08T11:41:54.670Z,11.85
2018-12-08T11:44:55.405Z,15.90
2018-12-08T11:47:56.391Z,8.45
2018-12-08T11:50:57.135Z,21.10
2018-12-08T11:53:58.123Z,9.95
2018-12-08T11:56:58.859Z,12.55
2018-12-08T11:59:59.598Z,17.07
2018-12-08T12:02:56.491Z,6.15
2018-12-08T12:05:58.767Z,11.40
2018-12-08T12:08:59.757Z,15.10
2018-12-08T12:12:00.238Z,14.35
2018-12-08T12:15:26.578Z,11.08
2018-12-08T12:18:30.380Z,21.00
2018-12-08T12:21:31.372Z,21.70
2018-12-08T12:24:33.391Z,14.80
2018-12-08T12:27:34.122Z,18.57
2018-12-08T12:30:35.369Z,14.80
2018-12-08T12:33:36.106Z,14.68
2018-12-08T12:36:36.842Z,15.55
2018-12-08T12:39:37.575Z,9.45
2018-12-08T12:42:39.340Z,17.20
2018-12-08T12:45:40.331Z,6.65
2018-12-08T12:48:40.811Z,12.98
2018-12-08T12:51:43.081Z,18.67
2018-12-08T12:54:46.130Z,15.15
2018-12-08T12:57:48.396Z,21.17
2018-12-08T13:00:49.387Z,20.12
2018-12-08T13:03:50.381Z,38.25
2018-12-08T13:06:51.649Z,19.15
2018-12-08T13:09:52.108Z,77.00
2018-12-08T13:12:52.842Z,16.37
2018-12-08T13:15:53.601Z,15.25
2018-12-08T13:18:54.570Z,14.78
2018-12-08T13:21:55.310Z,21.27
2018-12-08T13:25:00.138Z,10.23
2018-12-08T13:28:00.619Z,18.82
2018-12-08T13:31:01.354Z,12.05
2018-12-08T13:34:02.346Z,10.30
2018-12-08T13:37:03.082Z,13.43
2018-12-08T13:40:03.819Z,17.07
2018-12-08T13:43:06.093Z,15.13
2018-12-08T13:46:07.594Z,11.93
2018-12-08T13:49:08.585Z,6.33
2018-12-08T13:52:09.324Z,15.85
2018-12-08T13:55:19.790Z,20.37
2018-12-08T13:58:21.049Z,9.43
2018-12-08T14:01:21.514Z,22.35
2018-12-08T14:04:21.993Z,7.50
2018-12-08T14:07:22.732Z,14.58
2018-12-08T14:10:23.469Z,16.85
2018-12-08T14:13:24.206Z,12.00
2018-12-08T14:16:25.194Z,16.37
2018-12-08T14:19:29.771Z,14.38
2018-12-08T14:22:30.250Z,16.73
2018-12-08T14:25:30.730Z,6.83
2018-12-08T14:28:31.472Z,13.32
2018-12-08T14:31:31.691Z,6.70
2018-12-08T14:34:36.013Z,7.35
2018-12-08T14:37:29.069Z,7.97
2018-12-08T14:40:30.055Z,7.85
2018-12-08T14:43:33.866Z,12.40
2018-12-08T14:46:38.185Z,9.10
2018-12-08T14:49:39.974Z,12.60
2018-12-08T14:52:40.424Z,9.90
2018-12-08T14:55:40.914Z,19.98
2018-12-08T14:58:42.666Z,9.98
2018-12-08T15:01:43.913Z,3.72
2018-12-08T15:04:44.396Z,11.45
2018-12-08T15:07:45.131Z,9.95
2018-12-08T15:10:45.864Z,5.15
2018-12-08T15:13:46.608Z,4.45
2018-12-08T15:16:47.080Z,15.58
2018-12-08T15:19:47.819Z,6.85
2018-12-08T15:22:48.556Z,5.08
2018-12-08T15:25:49.802Z,5.95
2018-12-08T15:28:50.795Z,12.60
2018-12-08T15:31:51.784Z,9.75
2018-12-08T15:34:52.521Z,5.83
2018-12-08T15:37:54.792Z,7.15
2018-12-08T15:40:55.532Z,11.20
2018-12-08T15:43:57.300Z,7.55
2018-12-08T15:46:57.774Z,5.72
2018-12-08T15:49:58.766Z,10.68
2018-12-08T15:53:00.008Z,8.03
2018-12-08T15:56:00.490Z,6.47
2018-12-08T15:59:00.970Z,6.20
2018-12-08T16:02:01.449Z,5.87
2018-12-08T16:05:02.186Z,9.88
2018-12-08T16:08:05.461Z,12.28
2018-12-08T16:11:04.171Z,9.78
2018-12-08T16:14:06.698Z,7.50
2018-12-08T16:17:18.698Z,6.12
2018-12-08T16:20:19.946Z,1.90
2018-12-08T16:23:20.680Z,7.08
2018-12-08T16:26:22.442Z,4.33
2018-12-08T16:29:23.178Z,7.65
2018-12-08T16:32:24.938Z,7.12
2018-12-08T16:35:25.673Z,13.83
2018-12-08T16:38:27.179Z,8.85
2018-12-08T16:41:27.914Z,6.10
2018-12-08T16:44:29.421Z,12.53
2018-12-08T16:47:31.692Z,15.23
2018-12-08T16:50:32.434Z,3.42
2018-12-08T16:53:33.162Z,4.78
2018-12-08T16:56:33.897Z,4.35
2018-12-08T16:59:34.635Z,4.45
2018-12-08T17:02:34.601Z,2.20
2018-12-08T17:05:35.597Z,2.40
2018-12-08T17:08:36.342Z,6.45
2018-12-08T17:11:37.066Z,3.15
2018-12-08T17:14:38.057Z,4.10
2018-12-08T17:17:38.547Z,0.82
2018-12-08T17:20:40.302Z,5.05
2018-12-08T17:23:40.788Z,6.15
2018-12-08T17:26:42.795Z,1.82
2018-12-08T17:29:43.531Z,2.37
2018-12-08T17:32:44.009Z,0.85
2018-12-08T17:35:44.493Z,1.27
2018-12-08T17:38:45.226Z,2.72
2018-12-08T17:41:45.963Z,2.50
2018-12-08T17:44:50.538Z,2.12
2018-12-08T17:47:51.278Z,1.70
2018-12-08T17:50:52.271Z,2.20
2018-12-08T17:53:53.772Z,3.02
2018-12-08T17:56:55.273Z,3.65
2018-12-08T18:03:26.697Z,1.55
2018-12-08T18:06:27.178Z,2.72
2018-12-08T18:09:28.941Z,1.92
2018-12-08T18:12:30.441Z,2.83
2018-12-08T18:15:31.178Z,1.60
2018-12-08T18:18:31.914Z,2.02
2018-12-08T18:21:34.304Z,1.75
2018-12-08T18:24:35.177Z,8.03
2018-12-08T18:27:28.497Z,2.65
2018-12-08T18:30:29.484Z,2.83
2018-12-08T18:33:30.217Z,1.22
2018-12-08T18:36:30.955Z,2.12
2018-12-08T18:39:31.695Z,1.12
2018-12-08T18:42:32.172Z,2.47
2018-12-08T18:45:29.070Z,2.80
2018-12-08T18:48:30.825Z,1.70
2018-12-08T18:51:31.564Z,2.37
2018-12-08T18:54:33.582Z,1.15
2018-12-08T18:57:35.596Z,0.90
2018-12-08T19:00:37.354Z,1.32
2018-12-08T19:03:38.095Z,0.88
2018-12-08T19:06:39.596Z,2.55
2018-12-08T19:09:40.077Z,1.95
2018-12-08T19:12:41.068Z,1.35
2018-12-08T19:15:42.829Z,1.37
2018-12-08T19:18:44.075Z,3.65
2018-12-08T19:21:44.812Z,1.85
2018-12-08T19:24:45.545Z,1.60
2018-12-08T19:27:46.281Z,1.35
2018-12-08T19:30:47.018Z,4.37
2018-12-08T19:33:47.752Z,1.40
2018-12-08T19:36:44.760Z,4.92
2018-12-08T19:39:45.643Z,5.90
2018-12-08T19:42:47.150Z,4.50
2018-12-08T19:45:47.882Z,8.30
2018-12-08T19:48:48.364Z,8.88
2018-12-08T19:51:48.847Z,10.72
2018-12-08T19:54:49.320Z,7.87
2018-12-08T19:57:52.616Z,4.40
2018-12-08T20:00:53.100Z,4.97
2018-12-08T20:03:57.425Z,7.22
2018-12-08T20:06:58.924Z,11.57
2018-12-08T20:09:59.665Z,9.35
2018-12-08T20:13:00.396Z,9.20
2018-12-08T20:16:01.129Z,11.75
2018-12-08T20:19:02.636Z,10.98
2018-12-08T20:22:03.402Z,13.90
2018-12-08T20:25:07.691Z,9.00
2018-12-08T20:28:09.194Z,10.72
2018-12-08T20:31:10.191Z,12.53
2018-12-08T20:34:12.458Z,11.75
2018-12-08T20:37:13.225Z,19.12
2018-12-08T20:40:13.932Z,15.08
2018-12-08T20:43:14.668Z,17.57
2018-12-08T20:46:15.148Z,12.23
2018-12-08T20:49:18.698Z,14.15
2018-12-08T20:52:19.435Z,15.28
2018-12-08T20:55:20.938Z,14.25
2018-12-08T20:58:21.674Z,17.15
2018-12-08T21:01:22.154Z,23.02
2018-12-08T21:04:22.895Z,17.35
2018-12-08T21:07:23.885Z,20.17
2018-12-08T21:10:24.617Z,22.20
2018-12-08T21:13:26.124Z,18.90
2018-12-08T21:16:26.858Z,23.02
2018-12-08T21:19:27.604Z,14.50
2018-12-08T21:22:28.075Z,30.32
2018-12-08T21:25:30.344Z,20.23
2018-12-08T21:28:31.212Z,18.73
2018-12-08T21:31:31.569Z,25.50
2018-12-08T21:34:32.298Z,23.60
2018-12-08T21:37:33.293Z,20.55
2018-12-08T21:40:34.026Z,29.37
2018-12-08T21:43:35.530Z,18.75
2018-12-08T21:46:37.545Z,36.15
2018-12-08T21:49:39.306Z,46.55
2018-12-08T21:52:36.411Z,39.25
2018-12-08T21:55:38.221Z,47.88
2018-12-08T21:58:38.958Z,65.32
2018-12-08T22:01:40.228Z,41.30
2018-12-08T22:04:41.712Z,79.15
2018-12-08T22:07:43.987Z,77.32
2018-12-08T22:10:45.487Z,55.55
2018-12-08T22:13:46.218Z,58.48
2018-12-08T22:16:48.495Z,38.00
2018-12-08T22:19:52.043Z,69.65
2018-12-08T22:22:52.781Z,41.08
2018-12-08T22:25:53.522Z,25.75
2018-12-08T22:28:54.260Z,42.35
2018-12-08T22:31:54.985Z,32.65
2018-12-08T22:34:55.466Z,71.60
2018-12-08T22:37:56.201Z,39.50
2018-12-08T22:40:53.134Z,32.48
2018-12-08T22:43:53.578Z,12.25
2018-12-08T22:46:55.083Z,42.33
2018-12-08T22:49:55.564Z,25.85
2018-12-08T22:52:56.306Z,40.35
2018-12-08T22:55:57.036Z,40.25
2018-12-08T22:58:57.518Z,23.55
2018-12-08T23:01:58.253Z,37.08
2018-12-08T23:04:58.994Z,58.70
2018-12-08T23:07:59.722Z,30.00
2018-12-08T23:11:01.461Z,55.67
2018-12-08T23:14:01.966Z,35.20
2018-12-08T23:17:02.703Z,39.55
2018-12-08T23:20:03.436Z,64.62
2018-12-08T23:23:04.435Z,37.53
2018-12-08T23:26:06.954Z,29.60
2018-12-08T23:29:07.694Z,47.90
2018-12-08T23:32:10.219Z,47.83
2018-12-08T23:35:10.961Z,29.37
2018-12-08T23:39:06.989Z,31.65
2018-12-08T23:42:07.467Z,39.70
2018-12-08T23:45:09.482Z,19.70
2018-12-08T23:48:10.217Z,25.97
2018-12-08T23:51:10.962Z,38.55
2018-12-08T23:54:12.460Z,36.75
2018-12-08T23:57:16.779Z,27.37
